Union Star, Kentucky
Current Conditions -  °F | °C
As of 4:58 PM on Wednesday 22 Oct 2014 (Local Time) from KFTK Reporting Station
Few Clouds Few Clouds  
Wind Chill: 58°   Ceiling: Unl
Heat Index: 58°   Visibility: 10mi
Dew Point: 42°   Wind: 8mph
Humidity: 56%   Direction: 10°N
Pressure: 30.22"   Gusts: NA
Location:  37.94°N, 86.45°W
Report Text: KFTK 222158Z 01007KT 10SM FEW050 14/06 A3022 RMK AO2A SLP238 T01420055
Loading
Personal Weather Stations






























Interactive Weather Map
Tropical Storm Tracking
New forecast layout! Learn more

10-Day Weather Forecast

Advertisements
Track Severe Weather on mobile